Time;durP1;ratioP1;P1;durP2;ratioP2;P2;SDS_P1;SDS_P2;PMS_P1;PMS_P2;Temp;Humidity;BMP_temperature;BMP_pressure;BME280_temperature;BME280_humidity;BME280_pressure;Samples;Min_cycle;Max_cycle;Signal;HPM_P1;HPM_P2
2022/06/09 00:00:57;;;;;;;9.00;5.37;;;15.60;99.90;;;;;;5026931;28;20476;-66
2022/06/09 00:03:28;;;;;;;17.00;10.13;;;15.60;99.90;;;;;;4989001;28;21043;-66
2022/06/09 00:05:55;;;;;;;9.33;5.30;;;15.50;99.90;;;;;;4996698;28;20484;-67
2022/06/09 00:08:22;;;;;;;13.77;5.80;;;15.50;99.90;;;;;;4997696;28;20468;-67
2022/06/09 00:10:53;;;;;;;6.33;4.90;;;15.50;99.90;;;;;;5023559;28;20484;-66
2022/06/09 00:13:20;;;;;;;10.87;8.23;;;15.50;99.90;;;;;;5024077;28;20514;-67
2022/06/09 00:15:46;;;;;;;15.63;5.60;;;15.50;99.90;;;;;;5014845;28;20480;-67
2022/06/09 00:18:14;;;;;;;7.67;5.70;;;15.60;99.90;;;;;;5025941;28;20507;-67
2022/06/09 00:20:42;;;;;;;10.90;7.13;;;15.60;99.90;;;;;;5023941;28;20514;-67
2022/06/09 00:23:10;;;;;;;15.80;7.17;;;15.70;99.90;;;;;;5024873;28;20490;-67
2022/06/09 00:25:37;;;;;;;13.40;8.37;;;15.70;99.90;;;;;;5023377;28;20590;-65
2022/06/09 00:28:04;;;;;;;12.80;7.43;;;15.80;99.90;;;;;;5024333;28;20492;-66
2022/06/09 00:30:30;;;;;;;22.03;9.00;;;15.70;99.90;;;;;;5025232;28;20483;-66
2022/06/09 00:32:57;;;;;;;11.00;6.57;;;15.80;99.90;;;;;;5025154;28;20716;-66
2022/06/09 00:35:24;;;;;;;18.63;10.57;;;15.80;99.90;;;;;;5024728;28;20475;-66
2022/06/09 00:37:52;;;;;;;13.97;4.50;;;15.80;99.90;;;;;;5026343;28;20471;-67
2022/06/09 00:40:19;;;;;;;13.80;9.37;;;15.80;99.90;;;;;;5021661;28;20479;-67
2022/06/09 00:42:45;;;;;;;8.23;5.87;;;15.80;99.90;;;;;;5024246;28;20893;-66
2022/06/09 00:45:23;;;;;;;19.17;6.60;;;15.70;99.90;;;;;;5013764;28;20494;-66
2022/06/09 00:47:51;;;;;;;8.27;5.37;;;15.70;99.90;;;;;;5024975;28;20475;-66
2022/06/09 00:50:22;;;;;;;20.43;6.47;;;15.70;99.90;;;;;;5023000;28;20484;-66
2022/06/09 00:52:56;;;;;;;8.57;4.63;;;15.70;99.90;;;;;;5024626;28;20472;-66
2022/06/09 00:55:25;;;;;;;11.03;8.37;;;15.70;99.90;;;;;;5022679;28;21047;-66
2022/06/09 00:57:56;;;;;;;6.60;3.40;;;15.70;99.90;;;;;;5025557;28;21051;-66
2022/06/09 01:00:26;;;;;;;9.83;7.67;;;15.70;99.90;;;;;;5018826;28;20487;-66
2022/06/09 01:02:54;;;;;;;10.83;4.97;;;15.80;99.90;;;;;;5023053;28;20488;-66
2022/06/09 01:05:23;;;;;;;10.60;7.97;;;15.70;99.90;;;;;;5000654;28;20484;-66
2022/06/09 01:07:55;;;;;;;6.53;4.43;;;15.70;99.90;;;;;;5024641;28;20874;-66
2022/06/09 01:10:23;;;;;;;20.93;7.70;;;15.70;99.90;;;;;;5021545;28;21648;-66
2022/06/09 01:12:50;;;;;;;5.33;4.43;;;15.80;99.90;;;;;;5025893;28;20858;-66
2022/06/09 01:15:20;;;;;;;8.60;5.90;;;15.80;99.90;;;;;;5030305;28;20494;-66
2022/06/09 01:18:01;;;;;;;13.17;4.73;;;15.80;99.90;;;;;;5016626;28;20480;-65
2022/06/09 01:20:37;;;;;;;12.13;8.80;;;15.70;99.90;;;;;;5016097;28;20484;-66
2022/06/09 01:23:40;;;;;;;14.93;5.70;;;15.60;99.90;;;;;;4999831;28;20488;-66
2022/06/09 01:26:50;;;;;;;16.13;4.30;;;15.60;99.90;;;;;;5033455;28;20475;-65
2022/06/09 01:29:37;;;;;;;18.43;5.07;;;15.40;99.90;;;;;;5005820;28;20491;-66
2022/06/09 01:32:09;;;;;;;7.83;4.60;;;15.40;99.90;;;;;;5037408;28;21077;-66
2022/06/09 01:34:43;;;;;;;5.97;4.80;;;15.30;99.90;;;;;;5037352;28;20476;-66
2022/06/09 01:37:15;;;;;;;10.67;4.27;;;15.30;99.90;;;;;;5041508;28;20850;-66
2022/06/09 01:39:51;;;;;;;11.27;3.93;;;15.30;99.90;;;;;;5033043;28;20511;-66
2022/06/09 01:42:23;;;;;;;4.47;3.67;;;15.30;99.90;;;;;;5042605;28;20478;-66
2022/06/09 01:44:50;;;;;;;13.57;5.03;;;15.30;99.90;;;;;;5043639;28;20480;-66
2022/06/09 01:47:21;;;;;;;6.87;3.97;;;15.30;99.90;;;;;;5044562;28;21278;-66
2022/06/09 01:49:49;;;;;;;5.40;3.83;;;15.30;99.90;;;;;;5038351;28;20965;-66
2022/06/09 01:52:16;;;;;;;14.50;3.77;;;15.30;99.90;;;;;;5038682;28;20953;-66
2022/06/09 01:54:44;;;;;;;5.53;4.30;;;15.30;99.90;;;;;;5039104;28;20745;-66
2022/06/09 01:57:17;;;;;;;6.63;4.63;;;15.30;99.90;;;;;;5041189;28;20484;-66
2022/06/09 01:59:49;;;;;;;11.73;4.23;;;15.30;99.90;;;;;;5037047;28;20891;-66
2022/06/09 02:02:21;;;;;;;8.57;4.60;;;15.20;99.90;;;;;;5027782;28;20859;-66
2022/06/09 02:04:52;;;;;;;18.83;4.67;;;15.10;99.90;;;;;;5038635;28;20486;-66
2022/06/09 02:07:21;;;;;;;7.60;5.50;;;15.10;99.90;;;;;;5041317;28;20952;-66
2022/06/09 02:09:48;;;;;;;6.90;4.67;;;15.10;99.90;;;;;;5035594;28;21070;-66
2022/06/09 02:12:17;;;;;;;14.57;4.10;;;15.00;99.90;;;;;;5041591;28;20482;-66
2022/06/09 02:14:47;;;;;;;8.03;5.10;;;14.90;99.90;;;;;;5039118;28;20486;-66
2022/06/09 02:17:14;;;;;;;4.90;4.03;;;14.80;99.90;;;;;;5012073;28;20482;-66
2022/06/09 02:19:43;;;;;;;12.13;4.23;;;14.80;99.90;;;;;;5016505;28;20493;-66
2022/06/09 02:22:12;;;;;;;5.27;4.17;;;14.70;99.90;;;;;;5039168;28;20513;-67
2022/06/09 02:24:39;;;;;;;9.83;5.60;;;14.60;99.90;;;;;;5037722;28;20494;-66
2022/06/09 02:27:07;;;;;;;7.60;5.00;;;14.50;99.90;;;;;;5035839;28;20487;-66
2022/06/09 02:29:33;;;;;;;14.53;7.40;;;14.50;99.90;;;;;;5034703;28;20483;-66
2022/06/09 02:32:00;;;;;;;7.73;4.53;;;14.40;99.90;;;;;;5039564;28;20479;-66
2022/06/09 02:34:27;;;;;;;17.40;8.67;;;14.30;99.90;;;;;;5041143;28;20475;-67
2022/06/09 02:36:56;;;;;;;7.30;3.07;;;14.20;99.90;;;;;;5039761;28;20499;-66
2022/06/09 02:39:22;;;;;;;11.63;7.20;;;14.00;99.90;;;;;;5031518;28;20849;-67
2022/06/09 02:41:49;;;;;;;4.70;3.80;;;14.00;99.90;;;;;;5037916;28;21385;-67
2022/06/09 02:44:16;;;;;;;7.60;4.73;;;14.00;99.90;;;;;;5038830;28;21275;-67
2022/06/09 02:46:43;;;;;;;9.03;4.07;;;14.00;99.90;;;;;;5037351;28;20471;-66
2022/06/09 02:49:10;;;;;;;7.33;4.47;;;14.00;99.90;;;;;;5036172;28;21311;-66
2022/06/09 02:51:41;;;;;;;7.43;5.27;;;14.10;99.90;;;;;;5038919;28;21108;-66
2022/06/09 02:54:12;;;;;;;8.03;5.53;;;14.10;99.90;;;;;;5036757;28;20483;-67
2022/06/09 02:56:39;;;;;;;9.10;4.50;;;14.10;99.90;;;;;;5038144;28;20489;-67
2022/06/09 02:59:05;;;;;;;7.30;4.90;;;14.10;99.90;;;;;;5034695;28;20481;-67
2022/06/09 03:01:32;;;;;;;11.60;7.20;;;14.10;99.90;;;;;;5038666;28;21342;-66
2022/06/09 03:03:59;;;;;;;9.27;4.03;;;14.10;99.90;;;;;;5037149;28;20484;-67
2022/06/09 03:06:26;;;;;;;19.70;8.10;;;14.10;99.90;;;;;;5036762;28;20489;-66
2022/06/09 03:08:53;;;;;;;9.23;5.67;;;14.10;99.90;;;;;;5041281;28;20852;-67
2022/06/09 03:11:21;;;;;;;10.87;7.27;;;14.10;99.90;;;;;;5041538;28;20482;-67
2022/06/09 03:13:48;;;;;;;10.90;4.63;;;14.10;99.90;;;;;;5034469;28;20478;-67
2022/06/09 03:16:16;;;;;;;31.73;5.20;;;14.00;99.90;;;;;;5049370;28;20479;-67
2022/06/09 03:18:42;;;;;;;13.13;8.20;;;13.90;99.90;;;;;;5008879;28;20476;-67
2022/06/09 03:21:09;;;;;;;6.13;4.80;;;13.80;99.90;;;;;;5011032;28;21256;-67
2022/06/09 03:23:36;;;;;;;22.13;5.77;;;13.70;99.90;;;;;;5035648;28;20509;-67
2022/06/09 03:26:03;;;;;;;12.60;4.10;;;13.70;99.90;;;;;;5039096;28;20875;-67
2022/06/09 03:28:31;;;;;;;17.50;8.30;;;11.00;99.90;;;;;;5037116;28;20486;-67
2022/06/09 03:30:59;;;;;;;16.80;5.40;;;13.70;99.90;;;;;;5035065;28;20502;-67
2022/06/09 03:33:25;;;;;;;16.43;8.17;;;13.70;99.90;;;;;;5037456;28;20487;-67
2022/06/09 03:35:52;;;;;;;8.13;3.70;;;13.70;99.90;;;;;;5038613;28;20980;-66
2022/06/09 03:38:19;;;;;;;21.90;5.20;;;13.70;99.90;;;;;;5035395;28;20471;-66
2022/06/09 03:40:46;;;;;;;10.37;6.50;;;13.60;99.90;;;;;;5023496;28;20490;-67
2022/06/09 03:43:13;;;;;;;10.33;6.30;;;13.50;99.90;;;;;;5038452;28;20483;-67
2022/06/09 03:45:41;;;;;;;15.23;3.93;;;13.50;99.90;;;;;;5018581;28;20482;-66
2022/06/09 03:48:08;;;;;;;12.80;6.37;;;13.50;99.90;;;;;;5035689;28;20486;-67
2022/06/09 03:50:35;;;;;;;14.43;6.63;;;13.50;99.90;;;;;;5032264;28;20490;-67
2022/06/09 03:53:02;;;;;;;15.50;3.77;;;13.50;99.90;;;;;;5037422;28;21026;-67
2022/06/09 03:55:29;;;;;;;15.07;8.60;;;13.50;99.90;;;;;;5035781;28;21160;-66
2022/06/09 03:57:56;;;;;;;10.10;4.40;;;13.50;99.90;;;;;;5034205;28;20824;-67
2022/06/09 04:00:25;;;;;;;25.27;6.47;;;13.50;99.90;;;;;;5034999;28;21172;-67
2022/06/09 04:02:54;;;;;;;6.13;3.93;;;13.50;99.90;;;;;;5038260;28;20483;-66
2022/06/09 04:05:21;;;;;;;19.00;7.10;;;13.50;99.90;;;;;;5027516;28;20483;-67
2022/06/09 04:07:47;;;;;;;22.53;6.13;;;13.60;99.90;;;;;;5015283;28;20581;-67
2022/06/09 04:10:19;;;;;;;13.70;5.43;;;13.60;99.90;;;;;;5034876;28;21158;-67
2022/06/09 04:12:46;;;;;;;11.50;5.70;;;13.60;99.90;;;;;;5037877;28;20493;-66
2022/06/09 04:15:14;;;;;;;17.20;4.83;;;13.60;99.90;;;;;;5037084;28;20488;-66
2022/06/09 04:17:41;;;;;;;9.20;4.50;;;13.60;99.90;;;;;;5038555;28;21091;-66
2022/06/09 04:20:10;;;;;;;7.97;4.33;;;13.70;99.90;;;;;;5033892;28;20992;-66
2022/06/09 04:22:37;;;;;;;14.10;5.90;;;13.70;99.90;;;;;;5034066;28;20498;-66
2022/06/09 04:25:05;;;;;;;13.17;8.53;;;13.80;99.90;;;;;;5037309;28;21060;-66
2022/06/09 04:27:32;;;;;;;18.33;7.17;;;13.90;99.90;;;;;;5036628;28;20490;-66
2022/06/09 04:29:59;;;;;;;6.97;4.07;;;13.90;99.90;;;;;;5035178;28;20878;-67
2022/06/09 04:32:26;;;;;;;13.00;7.57;;;14.00;99.90;;;;;;5038744;28;20474;-66
2022/06/09 04:34:53;;;;;;;12.50;6.33;;;14.10;99.90;;;;;;5035922;28;20578;-66
2022/06/09 04:37:59;;;;;;;9.33;5.87;;;14.10;99.90;;;;;;5036430;28;20745;-66
2022/06/09 04:40:10;;;;;;;41.67;8.80;;;14.20;99.90;;;;;;5038312;28;20749;-66
2022/06/09 04:42:36;;;;;;;13.03;6.17;;;14.20;99.90;;;;;;5039245;28;20496;-66
2022/06/09 04:45:04;;;;;;;11.40;5.07;;;14.30;99.90;;;;;;5035895;28;20983;-66
2022/06/09 04:47:31;;;;;;;14.13;8.90;;;14.40;99.90;;;;;;5036875;28;21090;-66
2022/06/09 04:49:58;;;;;;;5.37;4.17;;;14.40;99.90;;;;;;5035731;28;20537;-65
2022/06/09 04:52:26;;;;;;;16.40;8.70;;;14.40;99.90;;;;;;5037527;28;20522;-65
2022/06/09 04:54:53;;;;;;;10.40;4.03;;;14.50;99.90;;;;;;5037244;28;20975;-66
2022/06/09 04:57:19;;;;;;;8.63;5.23;;;14.50;99.90;;;;;;5039893;28;20487;-65
2022/06/09 04:59:46;;;;;;;7.70;4.20;;;14.50;99.90;;;;;;5034378;28;20499;-66
2022/06/09 05:02:13;;;;;;;12.30;5.33;;;14.60;99.90;;;;;;5036885;28;20491;-66
2022/06/09 05:04:40;;;;;;;8.73;5.07;;;14.60;99.90;;;;;;5044575;28;20995;-66
2022/06/09 05:07:07;;;;;;;14.20;5.77;;;14.70;99.90;;;;;;5036928;28;20516;-66
2022/06/09 05:09:35;;;;;;;15.57;6.80;;;14.70;99.90;;;;;;5035191;28;20494;-66
2022/06/09 05:12:02;;;;;;;4.87;2.70;;;14.70;99.90;;;;;;5040466;28;20502;-65
2022/06/09 05:14:28;;;;;;;16.87;7.47;;;14.70;99.90;;;;;;5039351;28;20999;-65
2022/06/09 05:16:55;;;;;;;7.97;3.93;;;14.80;99.90;;;;;;5040618;28;20471;-66
2022/06/09 05:19:22;;;;;;;8.87;5.50;;;14.80;99.90;;;;;;5035760;28;20489;-65
2022/06/09 05:21:49;;;;;;;9.73;4.13;;;14.80;99.90;;;;;;5040553;28;20491;-65
2022/06/09 05:24:17;;;;;;;9.23;4.00;;;14.70;99.90;;;;;;5026332;28;20483;-66
2022/06/09 05:26:45;;;;;;;11.13;5.93;;;14.80;99.90;;;;;;5038735;28;20478;-66
2022/06/09 05:29:11;;;;;;;8.33;4.37;;;14.80;99.90;;;;;;5038450;28;20487;-65
2022/06/09 05:31:38;;;;;;;7.40;3.93;;;14.80;99.90;;;;;;5039834;28;20483;-69
2022/06/09 05:34:05;;;;;;;9.47;4.70;;;14.80;99.90;;;;;;5040316;28;20863;-67
2022/06/09 05:36:31;;;;;;;11.13;7.23;;;14.80;99.90;;;;;;5037162;28;20483;-66
2022/06/09 05:47:13;;;;;;;10.77;4.83;;;15.00;99.90;;;;;;5029040;28;20614;-65
2022/06/09 05:49:39;;;;;;;14.67;3.60;;;15.10;99.90;;;;;;5036438;28;20488;-67
2022/06/09 05:52:07;;;;;;;6.10;4.10;;;15.10;99.90;;;;;;5040936;28;20495;-65
2022/06/09 05:54:33;;;;;;;10.23;6.73;;;15.20;99.90;;;;;;5040126;28;20475;-67
2022/06/09 05:57:00;;;;;;;9.83;3.20;;;15.30;99.90;;;;;;5048625;28;20501;-67
2022/06/09 05:59:28;;;;;;;14.90;7.50;;;15.40;99.90;;;;;;5036161;28;20867;-69
2022/06/09 06:01:55;;;;;;;16.80;3.83;;;15.50;99.90;;;;;;5038962;28;20487;-66
2022/06/09 06:04:22;;;;;;;16.60;6.10;;;15.50;99.90;;;;;;5046070;28;20483;-68
2022/06/09 06:06:48;;;;;;;6.23;4.20;;;15.50;99.90;;;;;;5039493;28;20574;-69
2022/06/09 06:09:18;;;;;;;7.60;4.00;;;15.50;99.90;;;;;;5035809;28;20487;-66
2022/06/09 06:11:47;;;;;;;16.63;5.60;;;15.50;99.90;;;;;;5040929;28;20676;-66
2022/06/09 06:14:14;;;;;;;9.27;3.40;;;15.60;99.90;;;;;;5039004;28;20484;-67
2022/06/09 06:16:43;;;;;;;7.33;4.40;;;15.70;99.90;;;;;;5026802;28;20506;-68
2022/06/09 06:19:12;;;;;;;13.30;5.97;;;15.80;99.90;;;;;;5035448;28;20922;-66
2022/06/09 06:21:40;;;;;;;10.67;5.17;;;15.70;99.90;;;;;;5037199;28;20475;-70
2022/06/09 06:24:08;;;;;;;13.93;5.13;;;15.80;99.90;;;;;;5041025;28;20489;-67
2022/06/09 06:26:35;;;;;;;12.43;6.73;;;15.70;99.90;;;;;;5038818;28;20489;-65
2022/06/09 06:29:03;;;;;;;7.87;5.10;;;15.80;99.90;;;;;;5037141;28;20854;-68
2022/06/09 06:31:30;;;;;;;35.33;7.10;;;15.80;99.90;;;;;;5037067;28;20564;-68
2022/06/09 06:33:59;;;;;;;6.37;4.10;;;15.80;99.90;;;;;;5039574;28;20980;-67
2022/06/09 06:36:27;;;;;;;17.50;6.80;;;15.80;99.90;;;;;;5038696;28;20488;-68
2022/06/09 06:38:54;;;;;;;30.27;6.57;;;15.90;99.90;;;;;;5037338;28;20487;-67
2022/06/09 06:41:21;;;;;;;9.40;5.50;;;16.00;99.90;;;;;;5038760;28;20491;-68
2022/06/09 06:43:49;;;;;;;7.37;4.10;;;16.00;99.80;;;;;;5029181;28;21058;-67
2022/06/09 06:46:16;;;;;;;26.03;4.07;;;16.10;99.90;;;;;;5041209;28;20476;-68
2022/06/09 06:48:43;;;;;;;15.13;5.50;;;16.10;99.90;;;;;;5037341;28;20490;-66
2022/06/09 06:51:11;;;;;;;10.80;4.47;;;16.10;99.90;;;;;;5036984;28;20479;-68
2022/06/09 06:53:39;;;;;;;15.83;4.60;;;16.10;99.90;;;;;;5027557;28;20480;-67
2022/06/09 06:56:07;;;;;;;10.23;4.30;;;16.10;99.90;;;;;;5035102;28;20479;-67
2022/06/09 06:58:34;;;;;;;21.50;8.60;;;16.10;99.80;;;;;;5038092;28;20479;-66
2022/06/09 07:01:01;;;;;;;17.53;4.50;;;16.10;99.20;;;;;;5036060;28;20490;-67
2022/06/09 07:03:29;;;;;;;14.43;8.40;;;16.00;99.30;;;;;;5041731;28;20488;-67
2022/06/09 07:05:56;;;;;;;6.57;3.80;;;15.90;98.80;;;;;;5035738;28;21181;-66
2022/06/09 07:08:25;;;;;;;16.27;6.63;;;16.00;99.10;;;;;;5038255;28;21034;-69
2022/06/09 07:10:53;;;;;;;8.30;3.70;;;16.00;99.30;;;;;;5035948;28;20486;-67
2022/06/09 07:13:20;;;;;;;13.97;7.07;;;16.00;99.70;;;;;;5036812;28;20961;-67
2022/06/09 07:15:47;;;;;;;14.63;3.93;;;16.00;99.10;;;;;;5039216;28;20507;-67
2022/06/09 07:18:14;;;;;;;8.10;3.47;;;16.10;99.40;;;;;;5035971;28;20484;-66
2022/06/09 07:20:41;;;;;;;11.40;4.97;;;16.10;98.70;;;;;;5006597;28;20492;-66
2022/06/09 07:23:08;;;;;;;15.73;6.77;;;16.20;98.70;;;;;;5035840;28;20489;-66
2022/06/09 07:25:37;;;;;;;8.00;4.57;;;16.20;98.40;;;;;;5025663;28;22001;-66
2022/06/09 07:28:04;;;;;;;7.60;4.40;;;16.30;98.90;;;;;;5038182;28;20495;-67
2022/06/09 07:30:31;;;;;;;14.57;5.77;;;16.40;98.80;;;;;;5024279;28;20494;-67
2022/06/09 07:32:58;;;;;;;6.27;4.07;;;16.40;98.10;;;;;;5043309;28;20546;-66
2022/06/09 07:35:34;;;;;;;15.10;8.93;;;16.40;98.20;;;;;;5038022;28;20480;-67
2022/06/09 07:38:01;;;;;;;5.73;4.17;;;16.40;98.20;;;;;;5038261;28;20486;-67
2022/06/09 07:40:27;;;;;;;12.50;6.83;;;16.40;98.10;;;;;;5032415;28;20486;-67
2022/06/09 07:42:56;;;;;;;23.97;4.03;;;16.40;98.20;;;;;;5021021;28;20863;-67
2022/06/09 07:45:23;;;;;;;22.93;5.03;;;16.40;98.20;;;;;;5024425;28;20479;-67
2022/06/09 07:47:50;;;;;;;17.87;6.60;;;16.50;98.30;;;;;;5037628;28;20529;-66
2022/06/09 07:50:17;;;;;;;10.60;4.43;;;16.60;98.20;;;;;;5033076;28;20789;-67
2022/06/09 07:52:44;;;;;;;10.30;5.33;;;16.70;98.30;;;;;;5039516;28;20480;-66
2022/06/09 07:55:11;;;;;;;14.17;6.60;;;16.80;98.50;;;;;;5037511;28;20529;-67
2022/06/09 07:57:38;;;;;;;15.40;4.80;;;16.80;98.40;;;;;;5032008;28;20859;-66
2022/06/09 08:00:09;;;;;;;13.27;4.60;;;16.90;98.30;;;;;;5032864;28;21047;-67
2022/06/09 08:02:36;;;;;;;7.60;5.93;;;16.90;97.70;;;;;;5035828;28;20491;-67
2022/06/09 08:05:04;;;;;;;17.53;5.10;;;16.90;97.80;;;;;;5037216;28;20871;-67
2022/06/09 08:07:30;;;;;;;11.10;6.50;;;17.00;97.70;;;;;;5036961;28;20487;-67
2022/06/09 08:09:57;;;;;;;9.80;3.20;;;17.00;97.90;;;;;;5034350;28;20700;-67
2022/06/09 08:12:24;;;;;;;14.13;5.77;;;17.00;97.40;;;;;;5038064;28;20487;-67
2022/06/09 08:14:51;;;;;;;6.63;4.37;;;17.00;97.60;;;;;;5036985;28;20491;-68
2022/06/09 08:17:19;;;;;;;9.60;4.37;;;17.10;98.10;;;;;;5036250;28;20483;-67
2022/06/09 08:19:47;;;;;;;20.57;4.80;;;17.20;98.60;;;;;;5035835;28;20511;-67
2022/06/09 08:22:14;;;;;;;6.50;4.60;;;17.30;98.30;;;;;;5038385;28;20490;-67
2022/06/09 08:24:41;;;;;;;7.83;4.00;;;17.40;97.50;;;;;;5036266;28;20483;-67
2022/06/09 08:27:08;;;;;;;11.00;5.90;;;17.40;97.50;;;;;;5037232;28;20477;-67
2022/06/09 08:29:35;;;;;;;8.30;5.90;;;17.50;97.00;;;;;;5031587;28;20479;-67
2022/06/09 08:32:02;;;;;;;8.77;3.80;;;17.50;97.70;;;;;;5036858;28;21183;-67
2022/06/09 08:34:30;;;;;;;14.80;5.10;;;17.40;96.40;;;;;;5036991;28;20480;-67
2022/06/09 08:36:57;;;;;;;14.47;4.17;;;17.40;97.00;;;;;;5037138;28;20511;-67
2022/06/09 08:39:24;;;;;;;11.40;6.47;;;17.30;96.60;;;;;;5035310;28;20512;-67
2022/06/09 08:42:01;;;;;;;20.87;3.73;;;17.30;96.80;;;;;;5038201;28;20507;-67
2022/06/09 08:44:36;;;;;;;9.93;6.70;;;17.40;97.20;;;;;;5034497;28;21007;-67
2022/06/09 08:47:08;;;;;;;16.90;4.40;;;17.50;97.10;;;;;;5035350;28;20488;-67
2022/06/09 08:49:56;;;;;;;7.80;5.27;;;17.50;95.80;;;;;;5031740;28;20491;-67
2022/06/09 08:52:36;;;;;;;13.07;6.27;;;17.60;95.80;;;;;;5024461;28;20475;-67
2022/06/09 08:55:15;;;;;;;4.07;3.57;;;17.70;95.60;;;;;;5035651;28;20494;-67
2022/06/09 08:57:45;;;;;;;9.67;3.90;;;18.00;96.70;;;;;;5022971;28;20491;-66
2022/06/09 09:00:14;;;;;;;12.10;4.47;;;18.20;97.10;;;;;;5035730;28;20475;-67
2022/06/09 09:02:46;;;;;;;8.90;4.53;;;18.50;95.80;;;;;;5037066;28;20467;-70
2022/06/09 09:05:20;;;;;;;8.00;4.90;;;18.60;95.30;;;;;;5036372;28;20472;-68
2022/06/09 09:07:49;;;;;;;9.43;3.77;;;18.70;95.50;;;;;;5035063;28;20483;-68
2022/06/09 09:10:21;;;;;;;5.40;4.60;;;18.70;95.50;;;;;;5032210;28;20944;-67
2022/06/09 09:13:00;;;;;;;5.13;2.87;;;18.70;95.50;;;;;;5036609;28;20476;-67
2022/06/09 09:15:32;;;;;;;25.47;7.40;;;19.00;96.10;;;;;;5024751;28;20471;-67
2022/06/09 09:18:15;;;;;;;6.47;4.00;;;19.30;95.90;;;;;;5036105;28;21075;-70
2022/06/09 09:20:51;;;;;;;15.03;4.20;;;19.50;95.40;;;;;;5031116;28;20837;-66
2022/06/09 09:23:21;;;;;;;8.97;4.17;;;19.60;95.10;;;;;;5009860;28;20475;-68
2022/06/09 09:25:56;;;;;;;32.37;5.23;;;19.70;95.30;;;;;;5036580;28;20573;-65
2022/06/09 09:28:27;;;;;;;5.60;3.73;;;19.80;93.70;;;;;;5025373;28;20479;-68
2022/06/09 09:31:02;;;;;;;4.77;3.20;;;20.00;94.40;;;;;;5032706;28;20484;-67
2022/06/09 09:33:30;;;;;;;10.70;5.40;;;20.10;94.00;;;;;;5033826;28;21002;-66
2022/06/09 09:36:03;;;;;;;8.70;3.67;;;20.30;94.00;;;;;;5035773;28;20478;-66
2022/06/09 09:38:36;;;;;;;14.73;4.20;;;20.30;94.40;;;;;;5035991;28;20510;-66
2022/06/09 09:41:03;;;;;;;3.37;3.07;;;20.40;93.20;;;;;;5034971;28;20842;-67
2022/06/09 09:43:38;;;;;;;9.80;4.67;;;20.50;92.90;;;;;;5035228;28;20578;-67
2022/06/09 09:46:05;;;;;;;7.03;3.97;;;20.50;91.40;;;;;;5037723;28;20478;-67
2022/06/09 09:48:37;;;;;;;7.00;5.40;;;20.60;93.00;;;;;;5036687;28;20481;-67
2022/06/09 09:51:11;;;;;;;20.07;4.10;;;20.90;93.30;;;;;;5034597;28;20494;-67
2022/06/09 09:53:40;;;;;;;9.80;4.80;;;21.00;92.20;;;;;;5033214;28;20491;-71
2022/06/09 09:56:31;;;;;;;10.30;3.37;;;21.20;93.30;;;;;;5028042;28;20469;-67
2022/06/09 09:59:00;;;;;;;9.80;4.60;;;21.40;92.90;;;;;;5025952;28;20479;-67
2022/06/09 10:01:32;;;;;;;9.60;5.70;;;21.60;93.00;;;;;;5027483;28;21011;-67
2022/06/09 10:09:38;;;;;;;5.07;4.37;;;21.60;90.50;;;;;;5033251;28;20486;-68
2022/06/09 10:12:10;;;;;;;11.50;2.90;;;21.50;90.20;;;;;;5039204;28;20494;-68
2022/06/09 10:14:48;;;;;;;5.33;3.70;;;21.50;89.50;;;;;;5036325;28;20513;-68
2022/06/09 10:17:35;;;;;;;28.33;4.10;;;21.60;90.30;;;;;;5036994;28;20475;-67
2022/06/09 10:20:08;;;;;;;5.80;3.20;;;21.70;90.20;;;;;;5020369;28;20485;-67
2022/06/09 10:22:39;;;;;;;12.00;4.30;;;22.00;91.10;;;;;;5039526;28;20489;-67
2022/06/09 10:25:19;;;;;;;5.47;2.20;;;22.10;90.00;;;;;;5040782;28;20506;-68
2022/06/09 10:27:52;;;;;;;5.53;3.00;;;22.10;89.50;;;;;;5040703;28;20816;-67
2022/06/09 10:30:24;;;;;;;6.23;3.60;;;22.20;88.80;;;;;;5033661;28;20883;-74
2022/06/09 10:32:54;;;;;;;4.60;2.93;;;;;;;;;;5010001;28;20483;-67
2022/06/09 10:35:36;;;;;;;6.23;3.73;;;21.60;87.20;;;;;;5039116;28;20510;-68
2022/06/09 10:38:11;;;;;;;6.07;2.93;;;21.10;90.40;;;;;;5032437;28;20488;-67
2022/06/09 10:40:42;;;;;;;5.37;3.43;;;20.80;91.20;;;;;;5031604;28;21014;-76
2022/06/09 10:43:19;;;;;;;4.90;3.97;;;20.40;91.30;;;;;;5036681;28;20557;-68
2022/06/09 10:45:53;;;;;;;13.47;4.20;;;20.10;91.60;;;;;;5039217;28;20497;-67
2022/06/09 10:57:10;;;;;;;12.50;4.63;;;20.00;92.00;;;;;;5024437;28;20525;-67
2022/06/09 10:59:42;;;;;;;12.73;5.63;;;20.10;92.50;;;;;;5027664;28;20475;-69
2022/06/09 11:02:15;;;;;;;11.00;4.80;;;20.20;92.00;;;;;;5041066;28;20957;-68
2022/06/09 11:04:42;;;;;;;10.50;3.30;;;20.50;91.80;;;;;;5023547;28;20562;-68
2022/06/09 11:07:39;;;;;;;6.20;4.23;;;20.80;92.00;;;;;;5025053;28;20477;-67
2022/06/09 11:10:36;;;;;;;6.97;3.30;;;21.10;90.30;;;;;;5031762;28;20494;-72
2022/06/09 11:13:36;;;;;;;8.83;3.73;;;21.50;91.80;;;;;;5031555;28;20475;-68
2022/06/09 11:16:12;;;;;;;18.93;3.80;;;21.80;90.40;;;;;;5031277;28;20494;-69
2022/06/09 11:18:50;;;;;;;6.23;3.63;;;21.80;88.10;;;;;;5027520;28;20486;-66
2022/06/09 11:21:22;;;;;;;9.53;3.50;;;21.50;87.50;;;;;;5025148;28;20481;-68
2022/06/09 11:24:06;;;;;;;5.93;3.43;;;21.40;90.00;;;;;;5020838;28;20843;-67
2022/06/09 11:26:42;;;;;;;32.57;6.50;;;21.20;89.80;;;;;;5038417;28;20483;-67
2022/06/09 11:29:32;;;;;;;5.23;4.17;;;21.10;90.00;;;;;;5035514;28;20810;-68
2022/06/09 11:32:07;;;;;;;22.47;3.83;;;21.10;89.00;;;;;;5038724;28;20488;-68
2022/06/09 11:34:50;;;;;;;6.40;4.90;;;21.10;90.30;;;;;;5012586;28;20478;-67
2022/06/09 11:37:30;;;;;;;8.47;4.10;;;21.20;91.20;;;;;;5036317;28;20489;-68
2022/06/09 11:40:08;;;;;;;11.20;2.87;;;21.40;90.90;;;;;;5033735;28;20478;-67
2022/06/09 11:42:51;;;;;;;9.43;5.03;;;21.60;90.00;;;;;;5024860;28;20485;-68
2022/06/09 11:45:30;;;;;;;8.00;4.40;;;21.60;89.80;;;;;;5035678;28;21020;-68
2022/06/09 11:48:00;;;;;;;7.17;2.97;;;21.80;90.10;;;;;;5041716;28;21010;-68
2022/06/09 11:50:33;;;;;;;6.73;5.47;;;21.90;90.30;;;;;;5038256;28;20467;-68
2022/06/09 11:53:00;;;;;;;16.73;4.07;;;22.00;89.10;;;;;;5038393;28;20987;-67
2022/06/09 11:58:42;;;;;;;11.60;2.90;;;21.90;85.20;;;;;;5034730;28;20473;-67
2022/06/09 12:01:17;;;;;;;9.77;3.33;;;21.90;85.00;;;;;;5018521;28;20557;-68
2022/06/09 12:03:58;;;;;;;5.23;4.50;;;21.80;86.40;;;;;;5035499;28;20982;-67
2022/06/09 12:06:35;;;;;;;9.70;4.70;;;21.80;87.50;;;;;;5035552;28;20468;-67
2022/06/09 12:09:09;;;;;;;17.93;4.80;;;21.90;88.70;;;;;;5017180;28;20509;-67
2022/06/09 12:11:52;;;;;;;8.10;4.47;;;21.90;86.90;;;;;;5033530;28;21112;-67
2022/06/09 12:14:26;;;;;;;5.50;3.70;;;21.90;87.30;;;;;;5031182;28;20471;-67
2022/06/09 12:17:19;;;;;;;5.33;4.07;;;22.00;86.50;;;;;;5040022;28;20477;-67
2022/06/09 12:19:53;;;;;;;7.53;3.60;;;22.10;85.70;;;;;;5021832;28;20467;-67
2022/06/09 12:22:48;;;;;;;20.17;4.23;;;22.00;85.40;;;;;;5030213;28;20486;-67
2022/06/09 12:25:32;;;;;;;8.73;4.00;;;22.00;87.50;;;;;;5025946;28;20489;-67
2022/06/09 12:27:59;;;;;;;7.77;3.17;;;22.00;87.10;;;;;;5037818;28;20945;-68
2022/06/09 12:30:29;;;;;;;11.33;6.57;;;;;;;;;;5011617;28;20755;-67
2022/06/09 12:33:26;;;;;;;8.97;3.20;;;21.90;84.50;;;;;;5033924;28;20490;-68
2022/06/09 12:35:56;;;;;;;8.27;3.73;;;21.90;83.90;;;;;;5036808;28;20489;-67
2022/06/09 12:38:29;;;;;;;17.80;5.67;;;22.00;83.70;;;;;;5035160;28;20501;-67
2022/06/09 12:40:58;;;;;;;5.60;2.73;;;22.10;83.40;;;;;;5034581;28;20563;-68
2022/06/09 12:43:33;;;;;;;8.73;3.20;;;22.10;83.90;;;;;;5034295;28;20490;-67
2022/06/09 12:46:15;;;;;;;9.50;5.07;;;22.20;84.60;;;;;;5037190;28;20845;-67
2022/06/09 12:48:42;;;;;;;8.30;4.53;;;22.10;83.00;;;;;;5031569;28;20476;-66
2022/06/09 12:51:20;;;;;;;7.43;3.43;;;22.20;84.20;;;;;;5014684;28;21085;-67
2022/06/09 12:53:55;;;;;;;9.73;2.83;;;22.40;85.30;;;;;;5034852;28;20565;-67
2022/06/09 12:56:27;;;;;;;8.97;4.50;;;22.50;87.20;;;;;;5034801;28;20485;-67
2022/06/09 12:58:56;;;;;;;15.30;3.73;;;22.60;82.20;;;;;;5021913;28;20966;-66
2022/06/09 13:01:26;;;;;;;8.40;4.37;;;22.50;79.00;;;;;;5034578;28;20473;-67
2022/06/09 13:03:58;;;;;;;9.83;3.03;;;22.40;81.20;;;;;;5039541;28;20483;-67
2022/06/09 13:06:31;;;;;;;12.90;5.37;;;22.50;82.10;;;;;;5035483;28;20475;-67
2022/06/09 13:09:04;;;;;;;11.17;4.67;;;22.50;84.20;;;;;;5032595;28;20883;-67
2022/06/09 13:14:24;;;;;;;4.00;3.60;;;22.30;80.00;;;;;;5032660;28;20468;-69
2022/06/09 13:16:56;;;;;;;13.87;3.00;;;22.20;80.80;;;;;;5035240;28;20495;-67
2022/06/09 13:19:27;;;;;;;5.80;4.00;;;22.10;82.40;;;;;;5022630;28;21055;-68
2022/06/09 13:21:54;;;;;;;8.17;2.83;;;22.00;81.20;;;;;;5038808;28;20494;-67
2022/06/09 13:24:27;;;;;;;16.10;4.67;;;22.00;79.90;;;;;;5034601;28;20489;-67
2022/06/09 13:26:55;;;;;;;5.07;2.83;;;21.90;80.20;;;;;;5035911;28;20493;-67
2022/06/09 13:29:25;;;;;;;4.20;3.23;;;21.80;80.20;;;;;;5033869;28;20497;-67